createdAt,value
2022-12-24T00:00:00.739Z,8.3
2022-12-24T00:05:01.502Z,8.2
2022-12-24T00:10:00.809Z,8.3
2022-12-24T00:15:00.801Z,8.4
2022-12-24T00:20:00.789Z,8.5
2022-12-24T00:25:00.737Z,8.5
2022-12-24T00:30:00.730Z,8.5
2022-12-24T00:35:00.748Z,8.6
2022-12-24T00:40:00.817Z,8.6
2022-12-24T00:45:00.502Z,8.5
2022-12-24T00:50:00.784Z,8.5
2022-12-24T00:55:00.731Z,8.5
2022-12-24T01:00:00.800Z,8.5
2022-12-24T01:05:00.749Z,8.4
2022-12-24T01:10:00.737Z,8.4
2022-12-24T01:15:00.731Z,8.4
2022-12-24T01:20:00.486Z,8.4
2022-12-24T01:25:00.796Z,8.4
2022-12-24T01:30:00.751Z,8.4
2022-12-24T01:35:00.567Z,8.4
2022-12-24T01:40:00.711Z,8.4
2022-12-24T01:45:00.462Z,8.3
2022-12-24T01:50:00.432Z,8.3
2022-12-24T01:55:00.727Z,8.2
2022-12-24T02:00:00.526Z,8.2
2022-12-24T02:05:00.790Z,8.2
2022-12-24T02:10:00.776Z,8.2
2022-12-24T02:15:00.837Z,8.2
2022-12-24T02:20:00.677Z,8.1
2022-12-24T02:25:00.704Z,8.1
2022-12-24T02:30:00.753Z,8.1
2022-12-24T02:35:00.737Z,8.1
2022-12-24T02:40:00.725Z,8.1
2022-12-24T02:45:00.752Z,8.1
2022-12-24T02:50:00.740Z,8.1
2022-12-24T02:55:00.483Z,8.1
2022-12-24T03:00:00.747Z,8.1
2022-12-24T03:05:00.769Z,8.1
2022-12-24T03:10:00.772Z,8.1
2022-12-24T03:15:00.736Z,8.1
2022-12-24T03:20:00.769Z,8
2022-12-24T03:25:00.778Z,7.9
2022-12-24T03:30:00.471Z,7.9
2022-12-24T03:35:00.731Z,7.9
2022-12-24T03:40:00.819Z,7.9
2022-12-24T03:45:00.780Z,7.9
2022-12-24T03:50:00.718Z,7.8
2022-12-24T03:55:00.786Z,7.8
2022-12-24T04:00:00.884Z,7.8
2022-12-24T04:05:00.800Z,7.8
2022-12-24T04:10:00.748Z,7.6
2022-12-24T04:15:00.818Z,7.6
2022-12-24T04:20:00.514Z,7.6
2022-12-24T04:25:00.414Z,7.6
2022-12-24T04:30:00.902Z,7.6
2022-12-24T04:35:00.747Z,7.6
2022-12-24T04:40:00.753Z,7.6
2022-12-24T04:45:00.786Z,7.6
2022-12-24T04:50:00.821Z,7.7
2022-12-24T04:55:00.786Z,7.6
2022-12-24T05:00:00.737Z,7.7
2022-12-24T05:05:00.725Z,7.7
2022-12-24T05:10:00.779Z,7.7
2022-12-24T05:15:00.522Z,7.7
2022-12-24T05:20:00.782Z,7.7
2022-12-24T05:25:00.594Z,7.7
2022-12-24T05:30:00.820Z,7.7
2022-12-24T05:35:00.781Z,7.7
2022-12-24T05:40:00.770Z,7.7
2022-12-24T05:45:00.781Z,7.6
2022-12-24T05:50:00.773Z,7.6
2022-12-24T05:55:00.818Z,7.5
2022-12-24T06:00:00.762Z,7.4
2022-12-24T06:05:00.785Z,7.4
2022-12-24T06:10:00.508Z,7.4
2022-12-24T06:15:00.737Z,7.4
2022-12-24T06:20:00.817Z,7.4
2022-12-24T06:25:00.914Z,7.4
2022-12-24T06:30:00.708Z,7.4
2022-12-24T06:35:00.721Z,7.4
2022-12-24T06:40:00.563Z,7.4
2022-12-24T06:45:05.710Z,7.4
2022-12-24T06:50:00.478Z,7.4
2022-12-24T06:55:00.729Z,7.3
2022-12-24T07:00:00.794Z,7.3
2022-12-24T07:05:00.531Z,7.4
2022-12-24T07:10:00.785Z,7.4
2022-12-24T07:15:00.777Z,7.4
2022-12-24T07:20:00.756Z,7.4
2022-12-24T07:25:00.734Z,7.4
2022-12-24T07:30:00.728Z,7.4
2022-12-24T07:35:00.752Z,7.4
2022-12-24T07:40:00.728Z,7.4
2022-12-24T07:45:00.836Z,7.4
2022-12-24T07:50:00.737Z,7.5
2022-12-24T07:55:00.754Z,7.4
2022-12-24T08:00:00.810Z,7.5
2022-12-24T08:05:00.786Z,7.4
2022-12-24T08:10:00.743Z,7.4
2022-12-24T08:15:00.704Z,7.4
2022-12-24T08:20:00.756Z,7.4
2022-12-24T08:25:00.758Z,7.4
2022-12-24T08:30:00.764Z,7.4
2022-12-24T08:35:00.791Z,7.4
2022-12-24T08:40:00.725Z,7.4
2022-12-24T08:45:00.696Z,7.4
2022-12-24T08:50:00.778Z,7.3
2022-12-24T08:55:00.779Z,7.3
2022-12-24T09:00:00.759Z,7.3
2022-12-24T09:05:00.700Z,7.3
2022-12-24T09:10:00.765Z,7.3
2022-12-24T09:15:03.604Z,7.3
2022-12-24T09:20:00.754Z,7.2
2022-12-24T09:25:00.755Z,7.3
2022-12-24T09:30:00.779Z,7.3
2022-12-24T09:35:00.822Z,7.3
2022-12-24T09:40:00.778Z,7.3
2022-12-24T09:45:00.748Z,7.3
2022-12-24T09:50:00.728Z,7.3
2022-12-24T09:55:00.758Z,7.3
2022-12-24T10:00:00.812Z,7.3
2022-12-24T10:05:00.770Z,7.3
2022-12-24T10:10:00.766Z,7.2
2022-12-24T10:15:00.760Z,7.2
2022-12-24T10:20:00.782Z,7.2
2022-12-24T10:25:00.836Z,7.2
2022-12-24T10:30:00.756Z,7.2
2022-12-24T10:35:00.774Z,7.3
2022-12-24T10:40:00.666Z,7.3
2022-12-24T10:45:00.830Z,7.3
2022-12-24T10:50:00.823Z,7.2
2022-12-24T10:55:00.774Z,7.2
2022-12-24T11:00:00.848Z,7.2
2022-12-24T11:05:00.812Z,7.2
2022-12-24T11:10:00.704Z,7.2
2022-12-24T11:15:00.749Z,7.3
2022-12-24T11:20:00.740Z,7.2
2022-12-24T11:25:00.738Z,7.2
2022-12-24T11:30:01.597Z,7.2
2022-12-24T11:35:00.813Z,7.3
2022-12-24T11:40:00.740Z,7.3
2022-12-24T11:45:00.751Z,7.3
2022-12-24T11:50:17.480Z,7.3
2022-12-24T11:55:00.807Z,7.3
2022-12-24T12:00:00.805Z,7.3
2022-12-24T12:05:00.782Z,7.3
2022-12-24T12:10:00.757Z,7.3
2022-12-24T12:15:00.675Z,7.3
2022-12-24T12:20:00.696Z,7.2
2022-12-24T12:25:01.118Z,7.2
2022-12-24T12:30:00.773Z,7.3
2022-12-24T12:35:00.787Z,7.2
2022-12-24T12:40:00.713Z,7.3
2022-12-24T12:45:00.778Z,7.3
2022-12-24T12:50:00.772Z,7.3
2022-12-24T12:55:00.793Z,7.2
2022-12-24T13:00:00.738Z,7.2
2022-12-24T13:05:00.785Z,7.3
2022-12-24T13:10:00.771Z,7.3
2022-12-24T13:15:00.788Z,7.3
2022-12-24T13:20:00.797Z,7.3
2022-12-24T13:25:00.785Z,7.3
2022-12-24T13:30:07.161Z,7.3
2022-12-24T13:35:00.753Z,7.3
2022-12-24T13:40:00.806Z,7.3
2022-12-24T13:45:00.801Z,7.3
2022-12-24T13:50:00.739Z,7.3
2022-12-24T13:55:00.783Z,7.3
2022-12-24T14:00:00.833Z,7.3
2022-12-24T14:05:00.749Z,7.3
2022-12-24T14:10:00.763Z,7.3
2022-12-24T14:15:00.748Z,7.3
2022-12-24T14:25:00.764Z,7.4
2022-12-24T14:30:00.753Z,7.4
2022-12-24T14:35:00.696Z,7.4
2022-12-24T14:40:00.770Z,7.4
2022-12-24T14:45:00.738Z,7.3
2022-12-24T14:50:00.732Z,7.3
2022-12-24T14:55:00.756Z,7.3
2022-12-24T15:00:00.738Z,7.3
2022-12-24T15:05:00.770Z,7.4
2022-12-24T15:10:00.751Z,7.4
2022-12-24T15:15:00.748Z,7.3
2022-12-24T15:20:00.760Z,7.3
2022-12-24T15:25:00.767Z,7.3
2022-12-24T15:30:00.708Z,7.3
2022-12-24T15:35:00.820Z,7.3
2022-12-24T15:40:00.900Z,7.3
2022-12-24T15:45:00.928Z,7.3
2022-12-24T15:50:00.725Z,7.2
2022-12-24T15:55:00.766Z,7.2
2022-12-24T16:00:00.768Z,7.2
2022-12-24T16:05:00.795Z,7.2
2022-12-24T16:10:00.753Z,7.2
2022-12-24T16:15:00.804Z,7.2
2022-12-24T16:20:00.912Z,7.3
2022-12-24T16:25:00.781Z,7.3
2022-12-24T16:30:00.732Z,7.3
2022-12-24T16:35:00.759Z,7.3
2022-12-24T16:40:00.777Z,7.3
2022-12-24T16:45:00.755Z,7.3
2022-12-24T16:50:00.780Z,7.3
2022-12-24T16:55:00.801Z,7.3
2022-12-24T17:00:00.696Z,7.2
2022-12-24T17:05:00.718Z,7.3
2022-12-24T17:10:00.778Z,7.3
2022-12-24T17:15:00.801Z,7.3
2022-12-24T17:20:00.774Z,7.2
2022-12-24T17:25:00.714Z,7.2
2022-12-24T17:30:00.710Z,7.2
2022-12-24T17:35:00.770Z,7.2
2022-12-24T17:40:00.748Z,7.2
2022-12-24T17:45:00.801Z,7.2
2022-12-24T17:50:00.743Z,7.2
2022-12-24T17:55:00.751Z,7.2
2022-12-24T18:00:00.800Z,7.2
2022-12-24T18:05:00.764Z,7.3
2022-12-24T18:10:00.759Z,7.3
2022-12-24T18:15:00.848Z,7.3
2022-12-24T18:20:00.502Z,7.3
2022-12-24T18:25:00.702Z,7.2
2022-12-24T18:30:00.707Z,7.2
2022-12-24T18:35:00.722Z,7.2
2022-12-24T18:40:00.693Z,7.2
2022-12-24T18:45:00.755Z,7.2
2022-12-24T18:50:00.780Z,7.2
2022-12-24T18:55:00.777Z,7.2
2022-12-24T19:00:00.799Z,7.2
2022-12-24T19:05:00.708Z,7.3
2022-12-24T19:10:00.684Z,7.3
2022-12-24T19:15:00.772Z,7.3
2022-12-24T19:20:00.725Z,7.3
2022-12-24T19:25:00.771Z,7.3
2022-12-24T19:30:00.674Z,7.3
2022-12-24T19:35:00.849Z,7.2
2022-12-24T19:40:00.702Z,7.2
2022-12-24T19:45:00.709Z,7.2
2022-12-24T19:50:00.799Z,7.2
2022-12-24T19:55:00.735Z,7.2
2022-12-24T20:00:00.736Z,7.2
2022-12-24T20:05:00.691Z,7.2
2022-12-24T20:10:00.816Z,7.1
2022-12-24T20:15:00.787Z,7.1
2022-12-24T20:20:00.786Z,7.1
2022-12-24T20:25:00.716Z,7.1
2022-12-24T20:30:00.754Z,7.1
2022-12-24T20:35:00.770Z,7
2022-12-24T20:40:00.815Z,7
2022-12-24T20:45:00.759Z,7
2022-12-24T20:50:00.792Z,7
2022-12-24T20:55:00.728Z,7.1
2022-12-24T21:00:00.791Z,7
2022-12-24T21:05:02.364Z,7
2022-12-24T21:10:00.785Z,7.1
2022-12-24T21:15:00.750Z,7.1
2022-12-24T21:20:00.616Z,7.1
2022-12-24T21:25:00.876Z,7.1
2022-12-24T21:30:00.727Z,7.1
2022-12-24T21:35:00.760Z,7.1
2022-12-24T21:40:00.811Z,7.1
2022-12-24T21:45:00.750Z,7.2
2022-12-24T21:50:00.767Z,7.2
2022-12-24T21:55:00.734Z,7.2
2022-12-24T22:00:00.548Z,7.2
2022-12-24T22:05:00.742Z,7.1
2022-12-24T22:10:00.688Z,7.1
2022-12-24T22:15:00.840Z,7.1
2022-12-24T22:20:00.857Z,7.1
2022-12-24T22:25:00.957Z,7.1
2022-12-24T22:30:00.685Z,7.1
2022-12-24T22:35:00.758Z,7.1
2022-12-24T22:40:00.733Z,7.1
2022-12-24T22:45:00.744Z,7.2
2022-12-24T22:50:00.791Z,7.2
2022-12-24T22:55:00.743Z,7.2
2022-12-24T23:00:00.741Z,7.2
2022-12-24T23:05:00.835Z,7.2
2022-12-24T23:10:00.785Z,7.2
2022-12-24T23:15:00.467Z,7.2
2022-12-24T23:20:00.726Z,7.1
2022-12-24T23:25:00.803Z,7.1
2022-12-24T23:30:00.714Z,7.1
2022-12-24T23:35:00.895Z,7.1
2022-12-24T23:40:00.761Z,7.1
2022-12-24T23:45:00.740Z,7.1
2022-12-24T23:50:00.739Z,7.1
2022-12-24T23:55:00.736Z,7.1
